Time;durP1;ratioP1;P1;durP2;ratioP2;P2;SDS_P1;SDS_P2;PMS_P1;PMS_P2;Temp;Humidity;BMP_temperature;BMP_pressure;BME280_temperature;BME280_humidity;BME280_pressure;Samples;Min_cycle;Max_cycle;Signal;HPM_P1;HPM_P2
2023/03/06 00:01:06;;;;;;;9.25;2.55;;;2.60;99.90;;;;;;5048630;28;20068;-66
2023/03/06 00:03:32;;;;;;;5.07;1.90;;;2.60;99.90;;;;;;5052760;28;20040;-66
2023/03/06 00:05:58;;;;;;;5.97;2.45;;;2.60;99.90;;;;;;5041212;28;20040;-66
2023/03/06 00:08:26;;;;;;;7.45;2.42;;;2.50;99.90;;;;;;5051615;28;20033;-66
2023/03/06 00:10:52;;;;;;;8.68;2.65;;;2.60;99.90;;;;;;5032567;28;20521;-66
2023/03/06 00:13:18;;;;;;;6.22;2.30;;;2.50;99.90;;;;;;5044934;28;20041;-65
2023/03/06 00:15:43;;;;;;;8.57;2.50;;;2.50;99.90;;;;;;5047351;28;20028;-66
2023/03/06 00:18:09;;;;;;;3.30;2.00;;;2.50;99.90;;;;;;5050503;28;20502;-66
2023/03/06 00:20:35;;;;;;;8.43;2.35;;;2.50;99.90;;;;;;5029622;28;20063;-66
2023/03/06 00:23:01;;;;;;;4.32;2.30;;;2.50;99.90;;;;;;5044222;28;20041;-66
2023/03/06 00:25:27;;;;;;;8.30;2.60;;;2.50;99.90;;;;;;5043836;28;20584;-66
2023/03/06 00:27:52;;;;;;;8.27;2.80;;;2.50;99.90;;;;;;5044321;28;20037;-66
2023/03/06 00:30:21;;;;;;;5.88;2.78;;;2.50;99.90;;;;;;5046449;28;20478;-66
2023/03/06 00:32:48;;;;;;;10.65;4.10;;;2.50;99.90;;;;;;5024728;28;20526;-66
2023/03/06 00:35:14;;;;;;;10.15;4.75;;;2.50;99.90;;;;;;5041944;28;20033;-66
2023/03/06 00:37:40;;;;;;;11.98;5.10;;;2.50;99.90;;;;;;5043774;28;20048;-66
2023/03/06 00:40:08;;;;;;;8.05;2.60;;;2.60;99.90;;;;;;5037153;28;20033;-66
2023/03/06 00:42:34;;;;;;;5.55;3.00;;;2.60;99.90;;;;;;5045675;28;20037;-66
2023/03/06 00:44:59;;;;;;;6.13;2.40;;;2.60;99.90;;;;;;5025870;28;20049;-66
2023/03/06 00:47:25;;;;;;;6.75;3.15;;;2.60;99.90;;;;;;5060090;28;20039;-66
2023/03/06 00:49:50;;;;;;;4.22;2.20;;;2.60;99.90;;;;;;5051916;28;20098;-66
2023/03/06 00:52:16;;;;;;;7.03;2.55;;;2.60;99.90;;;;;;5047789;28;20412;-66
2023/03/06 00:54:41;;;;;;;3.80;2.28;;;2.60;99.90;;;;;;5060048;28;20409;-66
2023/03/06 00:57:07;;;;;;;6.20;2.78;;;2.60;99.90;;;;;;5031960;28;20052;-66
2023/03/06 00:59:33;;;;;;;6.47;2.88;;;2.60;99.90;;;;;;5051599;28;20037;-65
2023/03/06 01:01:59;;;;;;;5.28;2.60;;;2.60;99.90;;;;;;5049661;28;20037;-65
2023/03/06 01:04:25;;;;;;;5.85;2.80;;;2.60;99.90;;;;;;5033762;28;20076;-66
2023/03/06 01:06:50;;;;;;;4.97;2.28;;;2.60;99.90;;;;;;5048090;28;20052;-66
2023/03/06 01:09:16;;;;;;;5.47;2.58;;;2.60;99.90;;;;;;5051607;28;20032;-66
2023/03/06 01:11:42;;;;;;;7.10;2.88;;;2.60;99.90;;;;;;5058946;28;20066;-66
2023/03/06 01:14:07;;;;;;;7.25;2.65;;;2.60;99.90;;;;;;5051272;28;20036;-65
2023/03/06 01:16:33;;;;;;;8.90;2.60;;;2.60;99.90;;;;;;5042568;28;20044;-66
2023/03/06 01:18:59;;;;;;;7.45;2.80;;;2.50;99.90;;;;;;5048130;28;20033;-65
2023/03/06 01:21:25;;;;;;;8.68;2.85;;;2.60;99.90;;;;;;5050534;28;20033;-66
2023/03/06 01:23:50;;;;;;;7.03;2.70;;;2.60;99.90;;;;;;5069448;28;20052;-65
2023/03/06 01:26:16;;;;;;;6.93;2.90;;;2.60;99.90;;;;;;5055102;28;20048;-66
2023/03/06 01:28:42;;;;;;;4.68;2.60;;;2.60;99.90;;;;;;5059089;28;20037;-66
2023/03/06 01:31:08;;;;;;;7.10;2.88;;;2.60;99.90;;;;;;5046212;28;20033;-65
2023/03/06 01:33:35;;;;;;;9.18;3.05;;;2.60;99.90;;;;;;5025903;28;20037;-65
2023/03/06 01:36:04;;;;;;;6.18;3.03;;;2.60;99.90;;;;;;5048472;28;20041;-66
2023/03/06 01:38:30;;;;;;;5.55;3.20;;;2.60;99.90;;;;;;5048992;28;20059;-66
2023/03/06 01:40:56;;;;;;;7.22;2.55;;;2.70;99.90;;;;;;5040138;28;20494;-65
2023/03/06 01:43:28;;;;;;;10.07;3.10;;;2.60;99.90;;;;;;5051082;28;20037;-66
2023/03/06 01:46:27;;;;;;;6.30;3.42;;;2.70;99.90;;;;;;5041860;28;20088;-65
2023/03/06 01:49:00;;;;;;;5.25;3.22;;;2.70;99.90;;;;;;5049196;28;20045;-65
2023/03/06 01:51:31;;;;;;;6.82;3.05;;;2.70;99.90;;;;;;5049557;28;20047;-65
2023/03/06 01:54:00;;;;;;;7.80;3.67;;;2.70;99.90;;;;;;5034165;28;20519;-65
2023/03/06 01:56:27;;;;;;;6.40;3.60;;;2.70;99.90;;;;;;5032931;28;20037;-65
2023/03/06 01:58:53;;;;;;;7.03;3.65;;;2.70;99.90;;;;;;5051322;28;20044;-65
2023/03/06 02:01:18;;;;;;;6.55;4.03;;;2.70;99.90;;;;;;5044431;28;20060;-65
2023/03/06 02:03:46;;;;;;;5.90;3.63;;;2.70;99.90;;;;;;5048297;28;20422;-65
2023/03/06 02:06:12;;;;;;;6.00;3.80;;;2.70;99.90;;;;;;5050697;28;20052;-65
2023/03/06 02:08:38;;;;;;;7.20;4.15;;;2.70;99.90;;;;;;5049469;28;20033;-65
2023/03/06 02:11:07;;;;;;;6.97;4.28;;;2.70;99.90;;;;;;5050382;28;20033;-65
2023/03/06 02:13:34;;;;;;;6.28;4.25;;;2.70;99.90;;;;;;5061287;28;20402;-65
2023/03/06 02:16:00;;;;;;;6.18;3.58;;;2.70;99.90;;;;;;5053649;28;20490;-65
2023/03/06 02:18:27;;;;;;;8.27;4.20;;;2.70;99.90;;;;;;5052852;28;20021;-65
2023/03/06 02:20:56;;;;;;;8.35;3.92;;;2.70;99.90;;;;;;5046215;28;20065;-65
2023/03/06 02:23:33;;;;;;;7.40;3.85;;;2.70;99.90;;;;;;5053298;28;20037;-65
2023/03/06 02:26:00;;;;;;;7.78;4.18;;;2.70;99.90;;;;;;5032813;28;20045;-65
2023/03/06 02:28:26;;;;;;;8.18;4.40;;;2.70;99.90;;;;;;5056853;28;20047;-65
2023/03/06 02:30:53;;;;;;;7.57;4.22;;;2.70;99.90;;;;;;5052283;28;20041;-65
2023/03/06 02:33:22;;;;;;;9.65;3.97;;;2.70;99.90;;;;;;5054129;28;20041;-65
2023/03/06 02:36:00;;;;;;;6.80;4.47;;;2.80;99.90;;;;;;5034959;28;20087;-65
2023/03/06 02:38:35;;;;;;;7.90;5.00;;;2.80;99.90;;;;;;5034962;28;20507;-65
2023/03/06 02:41:05;;;;;;;8.95;5.20;;;2.80;99.90;;;;;;5033528;28;20530;-65
2023/03/06 02:43:35;;;;;;;9.73;5.32;;;2.80;99.90;;;;;;5035203;28;20056;-65
2023/03/06 02:46:01;;;;;;;8.13;5.05;;;2.80;99.90;;;;;;5051075;28;20041;-65
2023/03/06 02:48:26;;;;;;;11.77;5.00;;;2.80;99.90;;;;;;5050468;28;20032;-65
2023/03/06 02:50:52;;;;;;;9.82;5.47;;;2.80;99.90;;;;;;5049367;28;20037;-65
2023/03/06 02:53:19;;;;;;;9.27;5.60;;;2.80;99.90;;;;;;5052310;28;20033;-65
2023/03/06 02:55:46;;;;;;;8.95;5.80;;;2.80;99.90;;;;;;5032883;28;20037;-65
2023/03/06 02:58:12;;;;;;;10.55;5.55;;;2.80;99.90;;;;;;5033234;28;20029;-65
2023/03/06 03:00:38;;;;;;;9.75;5.40;;;2.80;99.90;;;;;;5049012;28;20538;-65
2023/03/06 03:03:04;;;;;;;8.45;5.65;;;2.80;99.90;;;;;;5051576;28;20040;-65
2023/03/06 03:05:30;;;;;;;10.48;5.75;;;2.80;99.90;;;;;;5048961;28;20051;-64
2023/03/06 03:07:56;;;;;;;7.38;5.40;;;2.90;99.90;;;;;;5057336;28;20090;-64
2023/03/06 03:10:22;;;;;;;9.20;5.50;;;2.80;99.90;;;;;;5050904;28;20449;-64
2023/03/06 03:12:48;;;;;;;15.07;6.85;;;2.80;99.90;;;;;;5051397;28;20045;-64
2023/03/06 03:15:13;;;;;;;11.43;6.00;;;2.80;99.90;;;;;;5033815;28;20029;-64
2023/03/06 03:17:40;;;;;;;11.13;5.68;;;2.90;99.90;;;;;;5050124;28;20082;-64
2023/03/06 03:20:09;;;;;;;11.65;5.53;;;2.90;99.90;;;;;;5049858;28;20036;-64
2023/03/06 03:22:34;;;;;;;11.05;5.88;;;2.90;99.90;;;;;;5048636;28;20487;-64
2023/03/06 03:25:00;;;;;;;9.95;6.60;;;2.90;99.90;;;;;;5049059;28;20044;-65
2023/03/06 03:27:26;;;;;;;11.73;6.38;;;2.90;99.90;;;;;;5053521;28;20036;-65
2023/03/06 03:29:51;;;;;;;11.60;6.00;;;2.90;99.90;;;;;;5053053;28;20398;-65
2023/03/06 03:32:17;;;;;;;10.93;6.60;;;2.90;99.90;;;;;;5052849;28;20134;-65
2023/03/06 03:34:42;;;;;;;10.63;6.18;;;2.90;99.90;;;;;;5051673;28;20111;-65
2023/03/06 03:37:08;;;;;;;11.38;6.80;;;2.90;99.90;;;;;;5052585;28;20037;-65
2023/03/06 03:39:34;;;;;;;11.45;6.78;;;2.90;99.90;;;;;;5049146;28;20033;-65
2023/03/06 03:42:00;;;;;;;9.43;6.65;;;2.90;99.90;;;;;;5048368;28;20041;-66
2023/03/06 03:44:25;;;;;;;10.73;7.30;;;2.90;99.90;;;;;;5051884;28;20460;-66
2023/03/06 03:46:51;;;;;;;12.40;7.68;;;2.90;99.90;;;;;;5052134;28;20698;-66
2023/03/06 03:49:17;;;;;;;12.88;7.43;;;2.90;99.90;;;;;;5048420;28;20087;-66
2023/03/06 03:51:42;;;;;;;13.23;7.80;;;2.90;99.90;;;;;;5050942;28;20515;-65
2023/03/06 03:54:08;;;;;;;12.30;7.05;;;2.90;99.90;;;;;;5051922;28;20033;-66
2023/03/06 03:56:34;;;;;;;10.63;6.82;;;2.90;99.90;;;;;;5041158;28;20128;-66
2023/03/06 03:59:00;;;;;;;14.70;8.15;;;2.90;99.90;;;;;;5051622;28;20044;-66
2023/03/06 04:01:25;;;;;;;11.48;6.82;;;2.90;99.90;;;;;;5051878;28;20037;-66
2023/03/06 04:03:51;;;;;;;11.23;6.22;;;3.00;99.90;;;;;;5050864;28;20414;-66
2023/03/06 04:06:17;;;;;;;11.23;6.32;;;3.00;99.90;;;;;;5051820;28;20060;-66
2023/03/06 04:08:42;;;;;;;11.85;6.72;;;3.00;99.90;;;;;;5043212;28;20124;-66
2023/03/06 04:11:10;;;;;;;8.73;5.50;;;3.00;99.90;;;;;;5051940;28;20037;-66
2023/03/06 04:13:36;;;;;;;8.38;5.43;;;2.90;99.90;;;;;;5033617;28;20395;-66
2023/03/06 04:16:01;;;;;;;10.48;5.00;;;3.00;99.90;;;;;;5030837;28;20044;-65
2023/03/06 04:18:27;;;;;;;7.03;4.57;;;3.00;99.90;;;;;;5050451;28;20033;-65
2023/03/06 04:20:53;;;;;;;6.78;4.60;;;3.00;99.90;;;;;;5042762;28;20044;-65
2023/03/06 04:23:19;;;;;;;7.60;4.47;;;3.00;99.90;;;;;;5051248;28;20111;-65
2023/03/06 04:25:45;;;;;;;5.40;3.95;;;3.00;99.90;;;;;;5025454;28;20115;-65
2023/03/06 04:28:11;;;;;;;6.82;4.10;;;3.00;99.90;;;;;;5051799;28;20037;-65
2023/03/06 04:30:37;;;;;;;5.47;3.85;;;3.00;99.90;;;;;;5051298;28;20052;-65
2023/03/06 04:33:03;;;;;;;3.92;1.95;;;3.00;99.90;;;;;;5050619;28;20433;-65
2023/03/06 04:35:29;;;;;;;1.75;1.35;;;2.90;99.90;;;;;;5050863;28;20041;-65
2023/03/06 04:37:54;;;;;;;2.20;1.40;;;2.80;99.90;;;;;;5027499;28;20115;-65
2023/03/06 04:40:27;;;;;;;1.48;1.15;;;2.70;99.90;;;;;;5051226;28;20040;-65
2023/03/06 04:45:20;;;;;;;1.33;1.10;;;2.50;99.90;;;;;;5028773;28;20061;-63
2023/03/06 04:47:46;;;;;;;1.42;1.30;;;2.50;99.90;;;;;;5031314;28;20041;-63
2023/03/06 04:50:12;;;;;;;1.85;1.20;;;2.40;99.90;;;;;;5030522;28;20048;-63
2023/03/06 04:52:39;;;;;;;1.20;1.10;;;2.40;99.90;;;;;;5028395;28;20087;-63
2023/03/06 04:55:07;;;;;;;1.75;1.10;;;2.40;99.90;;;;;;5031251;28;20048;-62
2023/03/06 04:57:37;;;;;;;1.30;1.20;;;2.40;99.90;;;;;;5029587;28;20044;-63
2023/03/06 05:00:11;;;;;;;0.95;0.95;;;2.30;99.90;;;;;;5030413;28;20029;-63
2023/03/06 05:02:37;;;;;;;1.60;1.20;;;2.30;99.90;;;;;;5023693;28;20048;-63
2023/03/06 05:05:03;;;;;;;1.50;1.40;;;2.20;99.90;;;;;;5024569;28;20037;-63
2023/03/06 05:07:29;;;;;;;1.83;1.73;;;2.20;99.90;;;;;;5030386;28;20046;-63
2023/03/06 05:09:55;;;;;;;2.00;1.80;;;2.20;99.90;;;;;;5029970;28;20042;-62
2023/03/06 05:12:20;;;;;;;2.00;1.60;;;2.10;99.90;;;;;;5030388;28;20029;-63
2023/03/06 05:14:46;;;;;;;1.50;1.40;;;2.10;99.90;;;;;;5030707;28;20373;-62
2023/03/06 05:17:12;;;;;;;2.20;1.50;;;2.00;99.90;;;;;;5026751;28;20060;-62
2023/03/06 05:19:37;;;;;;;1.13;1.02;;;2.00;99.90;;;;;;5029825;28;20033;-62
2023/03/06 05:22:03;;;;;;;1.98;1.50;;;1.90;99.90;;;;;;5027782;28;20116;-63
2023/03/06 05:24:29;;;;;;;2.65;1.70;;;1.90;99.90;;;;;;5026211;28;20038;-63
2023/03/06 05:26:54;;;;;;;2.08;1.67;;;1.90;99.90;;;;;;5026314;28;20037;-62
2023/03/06 05:29:20;;;;;;;1.65;1.50;;;1.80;99.90;;;;;;5027049;28;20041;-62
2023/03/06 05:31:46;;;;;;;1.75;1.65;;;1.90;99.90;;;;;;5031498;28;20399;-63
2023/03/06 05:34:15;;;;;;;1.70;1.40;;;1.80;99.90;;;;;;5028273;28;20076;-63
2023/03/06 05:36:41;;;;;;;3.75;1.58;;;1.80;99.90;;;;;;5030507;28;20029;-62
2023/03/06 05:39:07;;;;;;;1.38;1.27;;;1.80;99.90;;;;;;5031508;28;20491;-62
2023/03/06 05:41:33;;;;;;;2.97;2.00;;;1.80;99.90;;;;;;5031417;28;20479;-63
2023/03/06 05:43:59;;;;;;;2.55;1.80;;;1.80;99.90;;;;;;5039744;28;20098;-63
2023/03/06 05:46:25;;;;;;;2.08;1.40;;;1.80;99.90;;;;;;5035511;28;20087;-62
2023/03/06 05:48:54;;;;;;;3.20;1.60;;;1.90;99.90;;;;;;5053417;28;20048;-62
2023/03/06 05:51:20;;;;;;;1.67;1.50;;;1.90;99.90;;;;;;5054574;28;20033;-63
2023/03/06 05:53:46;;;;;;;2.15;1.52;;;1.90;99.90;;;;;;5052217;28;20037;-62
2023/03/06 05:56:12;;;;;;;1.55;1.45;;;2.00;99.90;;;;;;5055263;28;20029;-63
2023/03/06 05:58:38;;;;;;;1.50;1.40;;;2.00;99.90;;;;;;5055452;28;20681;-62
2023/03/06 06:01:09;;;;;;;1.50;1.40;;;1.90;99.90;;;;;;5052268;28;20070;-62
2023/03/06 06:03:35;;;;;;;;;;;1.90;99.90;;;;;;5053837;28;20033;-62
2023/03/06 06:06:03;;;;;;;2.95;1.45;;;1.80;99.90;;;;;;5035244;28;19920;-62
2023/03/06 06:08:29;;;;;;;1.70;1.50;;;1.80;99.90;;;;;;5033897;28;20044;-62
2023/03/06 06:10:54;;;;;;;2.00;1.27;;;1.80;99.90;;;;;;5037089;28;20047;-62
2023/03/06 06:13:20;;;;;;;3.17;1.58;;;1.80;99.90;;;;;;5035914;28;20640;-62
2023/03/06 06:15:46;;;;;;;2.17;1.73;;;1.70;99.90;;;;;;5051807;28;20044;-62
2023/03/06 06:18:11;;;;;;;2.28;1.80;;;1.70;99.90;;;;;;5054877;28;20112;-62
2023/03/06 06:20:37;;;;;;;3.63;1.73;;;1.70;99.90;;;;;;5036539;28;20088;-62
2023/03/06 06:23:03;;;;;;;2.83;1.85;;;1.70;99.90;;;;;;5054334;28;20045;-63
2023/03/06 06:25:29;;;;;;;1.80;1.70;;;1.60;99.90;;;;;;5053567;28;20039;-62
2023/03/06 06:27:55;;;;;;;2.55;1.90;;;1.60;99.90;;;;;;5052310;28;20522;-62
2023/03/06 06:30:21;;;;;;;1.60;1.50;;;1.70;99.90;;;;;;5036106;28;20398;-63
2023/03/06 06:32:47;;;;;;;1.80;1.65;;;1.70;99.90;;;;;;5054288;28;20044;-62
2023/03/06 06:35:13;;;;;;;2.85;1.83;;;1.70;99.90;;;;;;5053571;28;20441;-63
2023/03/06 06:37:38;;;;;;;5.05;1.90;;;1.70;99.90;;;;;;5053771;28;20033;-62
2023/03/06 06:40:05;;;;;;;1.90;1.70;;;1.60;99.90;;;;;;5053633;28;20041;-62
2023/03/06 06:42:31;;;;;;;2.97;1.65;;;1.60;99.90;;;;;;5052433;28;20150;-62
2023/03/06 06:44:56;;;;;;;1.88;1.65;;;1.70;99.90;;;;;;5052167;28;20058;-62
2023/03/06 06:47:22;;;;;;;1.70;1.60;;;1.70;99.90;;;;;;5054272;28;20033;-62
2023/03/06 06:49:52;;;;;;;2.08;1.65;;;1.70;99.90;;;;;;5053429;28;20041;-62
2023/03/06 06:52:18;;;;;;;1.77;1.63;;;1.70;99.90;;;;;;5053028;28;20041;-62
2023/03/06 06:54:44;;;;;;;2.03;1.80;;;1.70;99.90;;;;;;5053708;28;20098;-62
2023/03/06 06:57:11;;;;;;;2.80;1.73;;;1.80;99.90;;;;;;5052000;28;20033;-62
2023/03/06 06:59:37;;;;;;;2.53;1.75;;;1.80;99.90;;;;;;5052165;28;20120;-62
2023/03/06 07:02:02;;;;;;;2.35;1.75;;;1.80;99.90;;;;;;5045033;28;20498;-63
2023/03/06 07:04:28;;;;;;;2.67;1.60;;;1.80;99.90;;;;;;5052474;28;20565;-62
2023/03/06 07:06:55;;;;;;;2.67;1.85;;;1.80;99.90;;;;;;5049149;28;20398;-62
2023/03/06 07:09:21;;;;;;;1.85;1.67;;;1.90;99.90;;;;;;5050367;28;20443;-62
2023/03/06 07:11:47;;;;;;;1.77;1.40;;;1.90;99.90;;;;;;5050741;28;20037;-62
2023/03/06 07:14:12;;;;;;;2.53;1.50;;;2.00;99.90;;;;;;5034048;28;20045;-62
2023/03/06 07:16:38;;;;;;;3.83;1.77;;;2.10;99.90;;;;;;5042764;28;20461;-62
2023/03/06 07:19:05;;;;;;;2.85;1.63;;;2.10;99.90;;;;;;5051149;28;20032;-62
2023/03/06 07:21:30;;;;;;;1.58;1.48;;;2.20;99.90;;;;;;5050482;28;20064;-62
2023/03/06 07:23:56;;;;;;;2.55;1.60;;;2.10;99.90;;;;;;5035508;28;20076;-62
2023/03/06 07:26:26;;;;;;;1.67;1.52;;;2.20;99.90;;;;;;5047052;28;20915;-62
2023/03/06 07:28:52;;;;;;;2.50;1.52;;;2.20;99.90;;;;;;5050433;28;20044;-62
2023/03/06 07:31:23;;;;;;;2.88;1.70;;;2.20;99.90;;;;;;5045986;28;20045;-62
2023/03/06 07:33:50;;;;;;;3.47;1.73;;;2.30;99.90;;;;;;5049270;28;20367;-62
2023/03/06 07:36:16;;;;;;;4.28;1.98;;;2.20;99.90;;;;;;5053224;28;20041;-63
2023/03/06 07:38:41;;;;;;;2.90;1.85;;;2.30;99.90;;;;;;5047626;28;20443;-62
2023/03/06 07:41:12;;;;;;;2.67;1.80;;;2.20;99.90;;;;;;5048189;28;20853;-62
2023/03/06 07:43:39;;;;;;;2.13;1.65;;;2.20;99.90;;;;;;5050736;28;20397;-62
2023/03/06 07:46:04;;;;;;;4.47;2.17;;;2.20;99.90;;;;;;5052000;28;20047;-62
2023/03/06 07:48:30;;;;;;;4.25;1.92;;;2.20;99.90;;;;;;5049295;28;20036;-63
2023/03/06 07:51:05;;;;;;;4.32;2.15;;;2.10;99.90;;;;;;5049905;28;20495;-62
2023/03/06 07:53:31;;;;;;;3.92;2.08;;;2.20;99.90;;;;;;5046359;28;20086;-62
2023/03/06 07:55:56;;;;;;;2.33;1.90;;;2.20;99.90;;;;;;5030439;28;20159;-62
2023/03/06 07:58:23;;;;;;;4.07;2.30;;;2.30;99.90;;;;;;5051956;28;20059;-62
2023/03/06 08:00:48;;;;;;;4.15;2.10;;;2.30;99.90;;;;;;5050081;28;20387;-62
2023/03/06 08:03:15;;;;;;;2.67;2.10;;;2.40;99.90;;;;;;5047347;28;20154;-62
2023/03/06 08:05:40;;;;;;;2.97;1.80;;;2.50;99.90;;;;;;5051578;28;20133;-62
2023/03/06 08:08:06;;;;;;;4.68;1.98;;;2.50;99.90;;;;;;5052044;28;20116;-62
2023/03/06 08:10:32;;;;;;;2.60;1.70;;;2.50;99.90;;;;;;5030979;28;20399;-62
2023/03/06 08:12:58;;;;;;;3.42;1.83;;;2.60;99.90;;;;;;5046463;28;20036;-63
2023/03/06 08:15:23;;;;;;;3.47;1.73;;;2.60;99.90;;;;;;5052417;28;20025;-62
2023/03/06 08:17:49;;;;;;;2.83;1.88;;;2.60;99.90;;;;;;5052921;28;20506;-62
2023/03/06 08:20:17;;;;;;;3.85;1.83;;;2.70;99.90;;;;;;5051854;28;20126;-62
2023/03/06 08:22:43;;;;;;;2.55;1.60;;;2.70;99.90;;;;;;5050571;28;20396;-62
2023/03/06 08:25:10;;;;;;;2.97;1.67;;;2.70;99.90;;;;;;5051289;28;20083;-62
2023/03/06 08:27:36;;;;;;;3.00;1.52;;;2.80;99.90;;;;;;5033822;28;20463;-62
2023/03/06 08:30:02;;;;;;;2.15;1.70;;;3.00;99.90;;;;;;5052290;28;20120;-62
2023/03/06 08:32:28;;;;;;;4.53;1.80;;;3.10;99.90;;;;;;5052257;28;20037;-62
2023/03/06 08:34:53;;;;;;;3.53;1.70;;;3.20;99.90;;;;;;5034398;28;20037;-62
2023/03/06 08:37:19;;;;;;;2.47;1.40;;;3.30;99.90;;;;;;5050152;28;20044;-62
2023/03/06 08:39:45;;;;;;;1.95;1.48;;;3.40;99.90;;;;;;5047969;28;20051;-62
2023/03/06 08:42:10;;;;;;;2.65;1.50;;;3.50;99.90;;;;;;5051787;28;20115;-63
2023/03/06 08:44:36;;;;;;;1.70;1.38;;;3.60;99.90;;;;;;5051857;28;20033;-62
2023/03/06 08:47:02;;;;;;;2.22;1.38;;;3.70;99.90;;;;;;5051035;28;20376;-63
2023/03/06 08:49:29;;;;;;;3.45;1.50;;;3.80;99.90;;;;;;5051516;28;20036;-62
2023/03/06 08:51:54;;;;;;;4.30;1.75;;;3.90;99.90;;;;;;5050046;28;20084;-63
2023/03/06 08:54:20;;;;;;;3.53;1.10;;;4.10;99.90;;;;;;5050615;28;20056;-62
2023/03/06 08:56:46;;;;;;;5.93;1.30;;;4.10;99.90;;;;;;5050619;28;20037;-63
2023/03/06 08:59:12;;;;;;;3.13;1.38;;;4.20;99.90;;;;;;5051836;28;20052;-62
2023/03/06 09:01:39;;;;;;;1.90;1.23;;;4.30;99.90;;;;;;5051071;28;20036;-62
2023/03/06 09:04:10;;;;;;;2.70;1.17;;;4.40;99.90;;;;;;5050828;28;20112;-62
2023/03/06 09:06:39;;;;;;;0.73;0.70;;;4.60;99.90;;;;;;5033440;28;20036;-62
2023/03/06 09:09:05;;;;;;;3.65;1.00;;;4.60;99.90;;;;;;5031946;28;20495;-62
2023/03/06 09:11:31;;;;;;;3.85;1.00;;;4.70;99.90;;;;;;5045510;28;20080;-62
2023/03/06 09:13:57;;;;;;;1.02;0.93;;;4.80;99.90;;;;;;5051233;28;20060;-62
2023/03/06 09:16:24;;;;;;;2.88;0.90;;;4.80;99.90;;;;;;5050929;28;20053;-63
2023/03/06 09:18:51;;;;;;;1.98;1.00;;;4.80;99.90;;;;;;5032322;28;20029;-62
2023/03/06 09:21:17;;;;;;;1.73;1.02;;;4.80;99.90;;;;;;5033802;28;20040;-63
2023/03/06 09:23:43;;;;;;;1.23;1.00;;;4.80;99.90;;;;;;5031524;28;20036;-63
2023/03/06 09:26:10;;;;;;;4.07;1.42;;;4.80;99.90;;;;;;5017225;28;20140;-63
2023/03/06 09:28:37;;;;;;;2.17;0.85;;;4.80;99.90;;;;;;5046911;28;20029;-63
2023/03/06 09:31:08;;;;;;;5.60;1.00;;;4.80;99.90;;;;;;5045269;28;20044;-62
2023/03/06 09:33:34;;;;;;;2.17;1.13;;;4.80;99.90;;;;;;5051102;28;20029;-62
2023/03/06 09:36:01;;;;;;;1.50;0.98;;;4.90;99.90;;;;;;5051402;28;20037;-62
2023/03/06 09:38:27;;;;;;;1.42;0.90;;;5.00;99.90;;;;;;5050045;28;20044;-63
2023/03/06 09:41:04;;;;;;;3.33;1.10;;;5.10;99.90;;;;;;5048419;28;20470;-63
2023/03/06 09:43:43;;;;;;;1.88;0.98;;;5.30;99.90;;;;;;5049418;28;20033;-62
2023/03/06 09:46:41;;;;;;;2.75;0.93;;;5.30;99.90;;;;;;5043123;28;20060;-62
2023/03/06 09:49:18;;;;;;;3.42;0.93;;;5.40;99.90;;;;;;5031366;28;20049;-62
2023/03/06 09:52:09;;;;;;;3.22;1.48;;;5.30;99.90;;;;;;5044900;28;20048;-62
2023/03/06 09:54:54;;;;;;;1.25;0.90;;;5.30;99.90;;;;;;5045874;28;20037;-62
2023/03/06 09:57:35;;;;;;;2.88;1.10;;;5.20;99.90;;;;;;5019017;28;20048;-63
2023/03/06 10:00:07;;;;;;;3.23;0.90;;;5.30;99.90;;;;;;5051315;28;20446;-63
2023/03/06 10:02:38;;;;;;;1.17;0.80;;;5.40;99.90;;;;;;5050240;28;20036;-63
2023/03/06 10:05:08;;;;;;;;;;;5.50;99.90;;;;;;5031516;28;20449;-63
2023/03/06 10:07:47;;;;;;;1.55;1.00;;;5.50;99.90;;;;;;5048375;28;20429;-63
2023/03/06 10:10:21;;;;;;;3.63;0.95;;;5.60;99.90;;;;;;5048809;28;20086;-63
2023/03/06 10:12:56;;;;;;;2.75;0.80;;;5.70;99.90;;;;;;5049746;28;20069;-63
2023/03/06 10:15:35;;;;;;;1.27;0.75;;;5.90;99.90;;;;;;5051303;28;20065;-62
2023/03/06 10:18:02;;;;;;;3.33;0.93;;;6.00;99.90;;;;;;5051097;28;20037;-63
2023/03/06 10:20:40;;;;;;;1.08;0.80;;;6.10;99.90;;;;;;5050175;28;20503;-63
2023/03/06 10:23:43;;;;;;;2.53;0.65;;;6.00;99.90;;;;;;5042282;28;20395;-63
2023/03/06 10:26:17;;;;;;;0.80;0.70;;;6.00;99.90;;;;;;5044120;28;20044;-62
2023/03/06 10:28:50;;;;;;;2.67;0.50;;;6.00;99.90;;;;;;5049528;28;20088;-63
2023/03/06 10:31:22;;;;;;;5.13;0.85;;;5.90;99.90;;;;;;5052569;28;20087;-62
2023/03/06 10:34:10;;;;;;;2.78;0.75;;;5.90;99.90;;;;;;5054129;28;20403;-63
2023/03/06 10:36:35;;;;;;;2.30;0.85;;;6.00;99.90;;;;;;5048391;28;20041;-63
2023/03/06 10:39:08;;;;;;;3.90;0.70;;;6.00;99.90;;;;;;5053534;28;20037;-63
2023/03/06 10:41:35;;;;;;;1.48;0.85;;;6.00;99.90;;;;;;5052516;28;20483;-63
2023/03/06 10:44:03;;;;;;;2.47;0.68;;;5.90;99.90;;;;;;5083407;22;20127;-64
2023/03/06 10:46:43;;;;;;;3.03;0.60;;;5.80;99.90;;;;;;5074797;28;20616;-63
2023/03/06 10:49:27;;;;;;;2.58;0.70;;;5.80;99.90;;;;;;5094496;28;20036;-63
2023/03/06 10:51:55;;;;;;;2.08;0.60;;;5.90;99.90;;;;;;5091034;28;20402;-63
2023/03/06 10:54:21;;;;;;;4.50;0.70;;;6.10;99.90;;;;;;5092577;28;20044;-64
2023/03/06 10:56:47;;;;;;;4.38;0.85;;;6.10;99.90;;;;;;5087997;28;20039;-64
2023/03/06 10:59:21;;;;;;;2.55;0.77;;;6.30;99.90;;;;;;5089874;28;20032;-64
2023/03/06 11:01:56;;;;;;;1.13;0.57;;;6.30;99.90;;;;;;5094341;28;20588;-63
2023/03/06 11:04:33;;;;;;;2.47;0.57;;;6.30;99.90;;;;;;5073279;28;20048;-63
2023/03/06 11:07:06;;;;;;;3.05;0.60;;;6.30;99.90;;;;;;5094329;28;20048;-63
2023/03/06 11:09:33;;;;;;;6.93;0.98;;;6.30;99.90;;;;;;5091915;28;20028;-64
2023/03/06 11:12:19;;;;;;;2.28;0.60;;;6.30;99.90;;;;;;5093958;28;20536;-63
2023/03/06 11:14:44;;;;;;;2.83;0.70;;;6.20;99.90;;;;;;5094252;28;20097;-63
2023/03/06 11:17:27;;;;;;;2.03;0.77;;;6.20;99.90;;;;;;5092787;28;20172;-63
2023/03/06 11:20:26;;;;;;;1.00;0.50;;;6.10;99.90;;;;;;5090875;28;20036;-63
2023/03/06 11:23:04;;;;;;;4.05;0.70;;;6.10;99.90;;;;;;5091902;28;20127;-62
2023/03/06 11:25:47;;;;;;;1.25;0.57;;;6.10;99.90;;;;;;5089629;28;20060;-62
2023/03/06 11:28:24;;;;;;;0.75;0.50;;;6.10;99.90;;;;;;5085040;28;20083;-63
2023/03/06 11:30:57;;;;;;;3.63;0.50;;;6.10;99.90;;;;;;5093872;28;20035;-63
2023/03/06 11:33:45;;;;;;;1.13;0.60;;;6.10;99.90;;;;;;5091045;28;20398;-63
2023/03/06 11:36:17;;;;;;;2.63;0.75;;;6.10;99.90;;;;;;5075779;28;20071;-63
2023/03/06 11:38:51;;;;;;;2.40;0.55;;;6.20;99.90;;;;;;5090135;28;20478;-63
2023/03/06 11:41:32;;;;;;;3.47;0.60;;;6.20;99.90;;;;;;5092518;28;20442;-63
2023/03/06 11:44:15;;;;;;;5.57;0.65;;;6.30;99.90;;;;;;5091008;28;20040;-63
2023/03/06 11:46:47;;;;;;;1.80;0.60;;;6.40;99.90;;;;;;5093514;28;20040;-63
2023/03/06 11:49:23;;;;;;;1.95;0.70;;;6.40;99.90;;;;;;5087253;28;20040;-63
2023/03/06 11:51:55;;;;;;;2.53;0.70;;;6.60;99.90;;;;;;5091250;28;20559;-63
2023/03/06 11:54:21;;;;;;;1.58;0.55;;;6.60;99.90;;;;;;5091295;28;20036;-63
2023/03/06 11:57:16;;;;;;;4.68;0.98;;;6.60;99.90;;;;;;5092336;28;20272;-63
2023/03/06 11:59:51;;;;;;;0.85;0.50;;;6.60;98.40;;;;;;5091970;28;20036;-63
2023/03/06 12:02:58;;;;;;;3.17;0.80;;;6.70;99.90;;;;;;5092929;28;20554;-63
2023/03/06 12:05:26;;;;;;;1.35;0.80;;;6.80;99.90;;;;;;5064838;28;20447;-63
2023/03/06 12:08:07;;;;;;;2.40;0.60;;;6.90;99.90;;;;;;5093104;28;20063;-63
2023/03/06 12:10:35;;;;;;;1.55;0.77;;;7.00;99.90;;;;;;5088445;28;20088;-63
2023/03/06 12:13:32;;;;;;;1.27;0.85;;;7.00;99.90;;;;;;5088716;28;20654;-63
2023/03/06 12:16:16;;;;;;;2.63;0.80;;;6.90;99.90;;;;;;5085294;28;20039;-64
2023/03/06 12:18:53;;;;;;;3.45;0.60;;;6.80;99.90;;;;;;5092670;28;20051;-63
2023/03/06 12:21:46;;;;;;;1.95;0.68;;;6.80;99.90;;;;;;5093130;28;20126;-63
2023/03/06 12:24:49;;;;;;;3.15;0.73;;;6.90;99.90;;;;;;5087307;28;20040;-63
2023/03/06 12:27:30;;;;;;;2.80;0.68;;;7.10;99.90;;;;;;5092307;28;20128;-63
2023/03/06 12:30:23;;;;;;;3.15;0.95;;;7.20;99.90;;;;;;5091200;28;20502;-63
2023/03/06 12:33:13;;;;;;;2.40;1.08;;;7.20;99.90;;;;;;5088529;28;20513;-63
2023/03/06 12:35:57;;;;;;;2.25;0.75;;;7.20;99.90;;;;;;5088694;28;20035;-63
2023/03/06 12:38:55;;;;;;;1.42;0.80;;;7.10;99.90;;;;;;5091495;28;20109;-63
2023/03/06 12:41:39;;;;;;;2.13;0.80;;;7.00;99.90;;;;;;5087305;28;20036;-63
2023/03/06 12:44:32;;;;;;;3.05;1.10;;;7.00;99.90;;;;;;5090031;28;20032;-63
2023/03/06 12:47:20;;;;;;;1.00;0.73;;;6.90;99.90;;;;;;5089364;28;20116;-63
2023/03/06 12:50:00;;;;;;;1.75;0.98;;;6.90;99.90;;;;;;5090449;28;20042;-63
2023/03/06 12:52:30;;;;;;;2.53;0.82;;;6.90;99.90;;;;;;5091844;28;20098;-63
2023/03/06 12:54:58;;;;;;;1.70;0.70;;;7.00;99.90;;;;;;5089221;28;20040;-63
2023/03/06 12:57:25;;;;;;;4.45;0.98;;;7.00;99.90;;;;;;5089113;28;20453;-63
2023/03/06 12:59:52;;;;;;;3.22;0.90;;;7.00;99.90;;;;;;5092111;28;20475;-63
2023/03/06 13:02:36;;;;;;;2.05;0.80;;;7.10;99.90;;;;;;5092084;28;20113;-63
2023/03/06 13:05:30;;;;;;;3.28;1.05;;;7.10;99.90;;;;;;5090913;28;20040;-63
2023/03/06 13:08:34;;;;;;;2.95;0.80;;;7.00;99.90;;;;;;5089141;28;20067;-63
2023/03/06 13:11:11;;;;;;;2.88;0.93;;;7.00;99.90;;;;;;5074474;28;20049;-63
2023/03/06 13:13:45;;;;;;;2.25;0.60;;;6.90;99.90;;;;;;5091444;28;20481;-63